createdAt,value
2023-05-19T00:01:46.612Z,995.8
2023-05-19T00:07:30.526Z,995.8
2023-05-19T00:18:09.174Z,995.8
2023-05-19T00:23:28.200Z,995.8
2023-05-19T00:28:47.519Z,995.7
2023-05-19T00:34:06.855Z,995.8
2023-05-19T00:44:46.259Z,995.7
2023-05-19T00:50:05.328Z,995.8
2023-05-19T01:00:43.789Z,995.7
2023-05-19T01:06:03.666Z,995.7
2023-05-19T01:16:43.436Z,995.6
2023-05-19T01:28:36.307Z,995.6
2023-05-19T01:32:42.199Z,995.7
2023-05-19T01:43:20.757Z,995.7
2023-05-19T01:48:39.723Z,995.6
2023-05-19T01:59:18.591Z,995.6
2023-05-19T02:04:38.210Z,995.6
2023-05-19T02:15:16.900Z,995.6
2023-05-19T02:25:55.454Z,995.7
2023-05-19T02:31:14.192Z,995.6
2023-05-19T02:41:52.734Z,995.7
2023-05-19T02:57:49.113Z,995.6
2023-05-19T03:08:27.632Z,995.5
2023-05-19T03:13:47.107Z,995.5
2023-05-19T03:24:25.297Z,995.5
2023-05-19T03:35:04.370Z,995.5
2023-05-19T03:45:42.538Z,995.5
2023-05-19T03:51:01.302Z,995.4
2023-05-19T04:01:40.105Z,995.6
2023-05-19T04:07:01.097Z,995.6
2023-05-19T04:17:39.039Z,995.6
2023-05-19T04:28:16.776Z,995.6
2023-05-19T04:33:36.430Z,995.7
2023-05-19T04:44:15.784Z,995.7
2023-05-19T04:49:35.003Z,995.6
2023-05-19T05:00:14.869Z,995.6
2023-05-19T05:05:33.948Z,995.7
2023-05-19T05:10:53.172Z,995.7
2023-05-19T05:16:12.797Z,995.6
2023-05-19T05:26:51.741Z,995.5
2023-05-19T05:32:10.780Z,995.5
2023-05-19T05:42:49.096Z,995.4
2023-05-19T05:58:46.658Z,995.4
2023-05-19T06:09:24.424Z,995.2
2023-05-19T06:14:43.375Z,995.2
2023-05-19T06:26:36.492Z,995.1
2023-05-19T06:30:41.850Z,995.1
2023-05-19T06:41:20.455Z,995
2023-05-19T06:57:17.632Z,995
2023-05-19T07:11:10.350Z,994.9
2023-05-19T07:13:15.360Z,994.9
2023-05-19T07:23:53.495Z,994.8
2023-05-19T07:34:32.568Z,994.8
2023-05-19T07:39:51.232Z,994.7
2023-05-19T07:50:29.383Z,994.7
2023-05-19T07:55:48.532Z,994.6
2023-05-19T08:06:27.000Z,994.4
2023-05-19T08:11:46.247Z,994.3
2023-05-19T08:17:04.954Z,994.4
2023-05-19T08:22:24.008Z,994.4
2023-05-19T08:33:02.007Z,994.4
2023-05-19T08:38:20.747Z,994.3
2023-05-19T08:48:58.675Z,994.1
2023-05-19T08:59:35.635Z,994
2023-05-19T09:04:54.648Z,994.1
2023-05-19T09:15:33.305Z,993.9
2023-05-19T09:20:52.547Z,994
2023-05-19T09:31:30.445Z,994.1
2023-05-19T09:36:49.168Z,994.1
2023-05-19T09:42:08.118Z,994.1
2023-05-19T09:47:27.569Z,994.1
2023-05-19T09:58:06.717Z,994.1
2023-05-19T10:03:34.571Z,994.1
2023-05-19T10:08:45.833Z,994
2023-05-19T10:14:05.090Z,994
2023-05-19T10:24:43.496Z,994
2023-05-19T10:30:02.706Z,994
2023-05-19T10:35:21.309Z,993.9
2023-05-19T10:40:39.981Z,993.8
2023-05-19T10:51:18.104Z,993.9
2023-05-19T10:56:36.929Z,993.8
2023-05-19T11:07:14.478Z,993.8
2023-05-19T11:12:33.302Z,993.8
2023-05-19T11:17:52.838Z,993.8
2023-05-19T11:23:11.854Z,993.7
2023-05-19T11:33:49.555Z,993.7
2023-05-19T11:39:08.500Z,993.7
2023-05-19T11:49:46.743Z,993.7
2023-05-19T12:05:44.227Z,993.5
2023-05-19T12:16:22.012Z,993.5
2023-05-19T12:21:41.593Z,993.4
2023-05-19T12:32:20.201Z,993.2
2023-05-19T12:37:40.049Z,993.2
2023-05-19T12:48:17.092Z,993.3
2023-05-19T12:58:55.820Z,993.3
2023-05-19T13:04:15.008Z,993.2
2023-05-19T13:14:54.797Z,993.2
2023-05-19T13:20:21.901Z,993.1
2023-05-19T13:30:50.769Z,992.9
2023-05-19T13:46:49.834Z,992.8
2023-05-19T13:57:26.847Z,992.7
2023-05-19T14:02:54.735Z,992.7
2023-05-19T14:13:31.918Z,992.5
2023-05-19T14:24:01.739Z,992.4
2023-05-19T14:29:21.109Z,992.3
2023-05-19T14:40:00.004Z,992.3
2023-05-19T14:45:18.743Z,992.2
2023-05-19T14:55:57.330Z,992.2
2023-05-19T15:01:16.004Z,992.1
2023-05-19T15:11:54.760Z,992
2023-05-19T15:17:14.306Z,992
2023-05-19T15:27:53.159Z,992
2023-05-19T15:38:31.500Z,991.8
2023-05-19T15:43:50.302Z,991.9
2023-05-19T15:54:28.468Z,991.8
2023-05-19T15:59:47.506Z,991.7
2023-05-19T16:10:26.048Z,991.6
2023-05-19T16:21:04.585Z,991.5
2023-05-19T16:26:23.462Z,991.4
2023-05-19T16:37:01.946Z,991.4
2023-05-19T16:42:20.790Z,991.3
2023-05-19T16:47:39.570Z,991.3
2023-05-19T16:58:17.570Z,991.2
2023-05-19T17:03:36.694Z,991.2
2023-05-19T17:14:15.771Z,991.2
2023-05-19T17:19:34.602Z,991.2
2023-05-19T17:30:12.195Z,991.2
2023-05-19T17:40:50.834Z,991.1
2023-05-19T17:46:09.950Z,991.2
2023-05-19T17:51:53.745Z,991.2
2023-05-19T18:02:32.482Z,991.3
2023-05-19T18:08:01.130Z,991.3
2023-05-19T18:13:18.578Z,991.3
2023-05-19T18:18:29.566Z,991.3
2023-05-19T18:29:07.647Z,991.2
2023-05-19T18:34:26.673Z,991.2
2023-05-19T18:45:04.422Z,991.3
2023-05-19T18:50:23.480Z,991.3
2023-05-19T18:55:42.237Z,991.3
2023-05-19T19:01:01.451Z,991.3
2023-05-19T19:11:40.077Z,991.4
2023-05-19T19:16:59.743Z,991.4
2023-05-19T19:27:38.140Z,991.5
2023-05-19T19:32:57.205Z,991.5
2023-05-19T19:38:16.593Z,991.6
2023-05-19T19:43:35.465Z,991.6
2023-05-19T19:54:14.270Z,991.7
2023-05-19T19:59:33.692Z,991.8
2023-05-19T20:10:11.242Z,991.8
2023-05-19T20:15:40.761Z,991.7
2023-05-19T20:26:12.939Z,991.7
2023-05-19T20:36:47.904Z,991.8
2023-05-19T20:42:07.173Z,991.8
2023-05-19T20:52:45.356Z,991.8
2023-05-19T20:58:04.820Z,991.8
2023-05-19T21:08:42.978Z,991.8
2023-05-19T21:24:50.249Z,991.8
2023-05-19T21:35:18.266Z,991.8
2023-05-19T21:40:37.148Z,991.8
2023-05-19T21:51:15.290Z,991.8
2023-05-19T22:07:13.073Z,991.8
2023-05-19T22:17:52.255Z,992
2023-05-19T22:23:11.344Z,991.9
2023-05-19T22:33:49.990Z,991.8
2023-05-19T22:39:09.582Z,991.8
2023-05-19T22:44:29.112Z,991.8
2023-05-19T22:49:49.346Z,991.8
2023-05-19T23:00:28.003Z,991.9
2023-05-19T23:05:47.693Z,991.9
2023-05-19T23:16:25.850Z,991.8
2023-05-19T23:21:45.402Z,991.8
2023-05-19T23:32:24.165Z,991.8
2023-05-19T23:43:02.352Z,991.8
2023-05-19T23:53:40.498Z,991.7
2023-05-19T23:58:59.543Z,991.7
